Portada
METAR-TAF:

METAR-TAF

Aeroports :

Funafuti, Tuvalu

latitud: 08-31S, longitud: 179-13E, altitud: 1 m

Observació

L'informe es va fer fa 58 minuts, a les 13:00 UTC
Vent 2 kt amb direcció variable
Temperatura 29°C
Humitat 74%
Pressió 1012 hPa
Visibilitat 10 km o més
Núvols disperses a una alçada de 1800 ft, Cumulus congestus.

METAR: NGFU 171300Z VRB02KT 9999 SCT018TCU 29/24 Q1012

Hora: 01:58 (13:58 UTC)

Pronòstic

L'informe es va fer fa 2 hores i 10 minuts, a les 11:48 UTC
Pronòstic vàlid del 17 a les 12 UTC al 18 a les 12 UTC
Vent 7 kt del Est
Visibilitat 10 km o més
Núvols disperses a una alçada de 1800 ft
Núvols disperses a una alçada de 10000 ft

TAF: NGFU 171148Z 1712/1812 10007KT 9999 SCT018 SCT100

Observacions i pronòstics meteorològics de més de 4000 aeroports (METAR i TAF).

Les estacions disponibles són els punts grocs i vermells al mapa.

Posi el ratolí al punt desitjat per veure el nom de l'estació.

Feu clic per veure les observacions i els pronòstics meteorològics.

Per canviar el mapa: feu clic els botons verds amb una creu de color negre per apropar; al botó verd amb un guió per allunyar la imatge; o en les fletxes verdes per a mapes adjacents.


METAR-TAF: